createdAt,value
2023-03-24T00:00:30.087Z,71.30
2023-03-24T00:03:01.841Z,71.46
2023-03-24T00:05:30.568Z,72.20
2023-03-24T00:08:02.167Z,72.84
2023-03-24T00:10:30.943Z,71.99
2023-03-24T00:12:58.779Z,70.99
2023-03-24T00:15:25.943Z,72.38
2023-03-24T00:17:56.342Z,75.00
2023-03-24T00:20:24.982Z,75.61
2023-03-24T00:22:57.333Z,74.07
2023-03-24T00:25:30.166Z,74.45
2023-03-24T00:27:58.125Z,73.41
2023-03-24T00:30:26.327Z,73.91
2023-03-24T00:32:53.902Z,75.94
2023-03-24T00:35:21.249Z,77.99
2023-03-24T00:37:52.167Z,76.66
2023-03-24T00:40:21.250Z,76.42
2023-03-24T00:42:49.535Z,77.16
2023-03-24T00:45:23.845Z,75.67
2023-03-24T00:47:54.476Z,75.99
2023-03-24T00:50:27.621Z,75.16
2023-03-24T00:52:55.357Z,74.71
2023-03-24T00:55:23.262Z,75.93
2023-03-24T00:57:50.946Z,74.82
2023-03-24T01:00:24.674Z,75.50
2023-03-24T01:02:54.130Z,75.71
2023-03-24T01:05:28.343Z,76.80
2023-03-24T01:08:04.038Z,77.56
2023-03-24T01:10:33.836Z,77.12
2023-03-24T01:13:01.969Z,78.45
2023-03-24T01:15:33.882Z,79.00
2023-03-24T01:18:03.892Z,80.55
2023-03-24T01:20:35.896Z,79.24
2023-03-24T01:23:05.438Z,78.01
2023-03-24T01:25:32.671Z,78.43
2023-03-24T01:28:02.831Z,78.85
2023-03-24T01:30:31.050Z,80.06
2023-03-24T01:32:58.101Z,79.65
2023-03-24T01:35:28.541Z,79.63
2023-03-24T01:37:56.598Z,78.72
2023-03-24T01:40:30.538Z,78.07
2023-03-24T01:42:57.931Z,78.32
2023-03-24T01:45:43.303Z,80.24
2023-03-24T01:48:13.275Z,82.98
2023-03-24T01:50:42.375Z,82.83
2023-03-24T01:53:09.532Z,82.90
2023-03-24T01:55:37.799Z,84.79
2023-03-24T01:58:05.461Z,84.84
2023-03-24T02:00:32.266Z,84.10
2023-03-24T02:03:03.656Z,84.15
2023-03-24T02:05:35.620Z,86.82
2023-03-24T02:08:28.470Z,87.05
2023-03-24T02:10:57.105Z,85.64
2023-03-24T02:13:23.928Z,85.11
2023-03-24T02:16:00.236Z,85.13
2023-03-24T02:19:04.944Z,86.00
2023-03-24T02:21:47.051Z,86.79
2023-03-24T02:24:44.174Z,87.36
2023-03-24T02:28:01.632Z,85.58
2023-03-24T02:30:43.987Z,83.91
2023-03-24T02:33:21.149Z,84.97
2023-03-24T02:36:19.240Z,84.69
2023-03-24T02:39:38.282Z,85.06
2023-03-24T02:42:26.933Z,84.98
2023-03-24T02:45:09.157Z,83.65
2023-03-24T02:48:20.643Z,85.38
2023-03-24T02:51:06.975Z,86.95
2023-03-24T02:54:22.072Z,85.86
2023-03-24T02:57:17.934Z,86.17
2023-03-24T02:59:54.791Z,87.23
2023-03-24T03:02:34.967Z,87.58
2023-03-24T03:05:07.435Z,88.43
2023-03-24T03:07:39.202Z,86.79
2023-03-24T03:10:18.722Z,86.85
2023-03-24T03:12:52.349Z,87.13
2023-03-24T03:15:32.736Z,87.29
2023-03-24T03:18:10.598Z,88.27
2023-03-24T03:20:50.990Z,88.48
2023-03-24T03:23:26.864Z,87.56
2023-03-24T03:26:02.528Z,86.16
2023-03-24T03:28:30.513Z,88.57
2023-03-24T03:31:01.841Z,90.71
2023-03-24T03:33:39.616Z,93.06
2023-03-24T03:36:23.689Z,93.71
2023-03-24T03:39:20.576Z,95.67
2023-03-24T03:41:55.214Z,97.81
2023-03-24T03:44:29.542Z,97.11
2023-03-24T03:46:56.443Z,99.38
2023-03-24T03:49:26.042Z,98.58
2023-03-24T03:51:54.294Z,98.29
2023-03-24T03:54:23.019Z,98.67
2023-03-24T03:56:50.867Z,98.55
2023-03-24T03:59:37.386Z,98.09
2023-03-24T04:02:49.152Z,97.96
2023-03-24T04:05:18.901Z,96.70
2023-03-24T04:08:08.720Z,96.25
2023-03-24T04:10:54.254Z,92.41
2023-03-24T04:13:49.678Z,94.51
2023-03-24T04:17:02.143Z,92.82
2023-03-24T04:19:44.624Z,93.43
2023-03-24T04:22:31.645Z,94.00
2023-03-24T04:25:10.041Z,95.79
2023-03-24T04:27:49.631Z,97.44
2023-03-24T04:30:23.794Z,97.44
2023-03-24T04:33:08.978Z,97.21
2023-03-24T04:38:33.002Z,94.10
2023-03-24T04:41:01.493Z,93.85
2023-03-24T04:43:43.076Z,95.26
2023-03-24T04:46:10.564Z,92.87
2023-03-24T04:48:50.148Z,90.01
2023-03-24T04:51:44.754Z,91.27
2023-03-24T04:54:13.590Z,92.32
2023-03-24T04:57:11.917Z,93.66
2023-03-24T04:59:38.952Z,91.38
2023-03-24T05:02:05.870Z,92.58
2023-03-24T05:04:37.486Z,94.58
2023-03-24T05:07:14.294Z,95.68
2023-03-24T05:09:45.955Z,96.01
2023-03-24T05:12:13.207Z,95.71
2023-03-24T05:14:43.255Z,94.17
2023-03-24T05:17:20.742Z,91.97
2023-03-24T05:22:43.990Z,91.10
2023-03-24T05:25:11.366Z,91.58
2023-03-24T05:27:38.423Z,92.37
2023-03-24T05:30:07.585Z,88.90
2023-03-24T05:32:34.660Z,88.72
2023-03-24T05:35:01.712Z,87.95
2023-03-24T05:37:28.618Z,89.83
2023-03-24T05:40:00.763Z,88.15
2023-03-24T05:42:27.647Z,86.60
2023-03-24T05:44:54.570Z,85.46
2023-03-24T05:47:21.476Z,82.67
2023-03-24T05:49:48.285Z,75.97
2023-03-24T05:52:16.971Z,77.24
2023-03-24T05:54:43.902Z,73.90
2023-03-24T05:57:18.687Z,70.76
2023-03-24T05:59:48.699Z,68.46
2023-03-24T06:02:15.816Z,69.07
2023-03-24T06:04:48.860Z,71.79
2023-03-24T06:10:07.725Z,67.41
2023-03-24T06:12:34.989Z,69.68
2023-03-24T06:15:02.057Z,75.15
2023-03-24T06:20:21.885Z,79.74
2023-03-24T06:22:57.065Z,75.11
2023-03-24T06:25:28.979Z,70.05
2023-03-24T06:27:56.147Z,67.10
2023-03-24T06:30:41.957Z,67.12
2023-03-24T06:33:09.574Z,69.43
2023-03-24T06:35:46.785Z,71.95
2023-03-24T06:38:15.524Z,66.09
2023-03-24T06:40:45.611Z,63.82
2023-03-24T06:43:12.478Z,60.14
2023-03-24T06:45:40.766Z,62.50
2023-03-24T06:48:07.761Z,65.22
2023-03-24T06:50:35.609Z,64.07
2023-03-24T06:53:03.654Z,62.59
2023-03-24T06:55:30.448Z,63.71
2023-03-24T06:57:57.263Z,60.18
2023-03-24T07:00:26.384Z,59.22
2023-03-24T07:02:53.573Z,58.05
2023-03-24T07:05:20.790Z,62.79
2023-03-24T07:10:23.054Z,61.19
2023-03-24T07:12:49.985Z,62.55
2023-03-24T07:15:17.253Z,59.45
2023-03-24T07:17:44.071Z,63.00
2023-03-24T07:20:11.406Z,62.66
2023-03-24T07:22:39.023Z,59.43
2023-03-24T07:27:48.681Z,58.05
2023-03-24T07:30:15.646Z,60.98
2023-03-24T07:32:42.545Z,59.83
2023-03-24T07:35:12.459Z,60.93
2023-03-24T07:37:41.315Z,58.81
2023-03-24T07:40:12.429Z,55.96
2023-03-24T07:42:41.058Z,55.23
2023-03-24T07:45:10.885Z,57.31
2023-03-24T07:47:39.155Z,56.93
2023-03-24T07:50:11.165Z,56.10
2023-03-24T07:52:41.632Z,55.57
2023-03-24T07:55:14.194Z,53.06
2023-03-24T07:57:46.775Z,54.48
2023-03-24T08:00:18.349Z,56.32
2023-03-24T08:02:48.173Z,56.87
2023-03-24T08:05:17.462Z,55.18
2023-03-24T08:07:53.576Z,55.46
2023-03-24T08:10:23.567Z,55.98
2023-03-24T08:12:51.379Z,54.92
2023-03-24T08:15:19.160Z,55.78
2023-03-24T08:17:49.279Z,55.65
2023-03-24T08:20:16.764Z,53.65
2023-03-24T08:22:46.505Z,57.02
2023-03-24T08:25:13.595Z,56.89
2023-03-24T08:27:43.634Z,57.08
2023-03-24T08:30:14.635Z,55.74
2023-03-24T08:32:56.130Z,53.60
2023-03-24T08:35:26.658Z,52.30
2023-03-24T08:38:04.550Z,54.86
2023-03-24T08:40:35.476Z,54.65
2023-03-24T08:43:08.862Z,52.26
2023-03-24T08:45:36.956Z,52.27
2023-03-24T08:48:06.449Z,52.79
2023-03-24T08:50:36.822Z,52.11
2023-03-24T08:53:04.707Z,54.05
2023-03-24T08:55:34.899Z,52.21
2023-03-24T08:58:05.543Z,53.88
2023-03-24T09:00:32.676Z,53.56
2023-03-24T09:03:02.570Z,51.43
2023-03-24T09:05:43.837Z,52.98
2023-03-24T09:08:13.401Z,52.66
2023-03-24T09:10:41.808Z,51.07
2023-03-24T09:13:09.048Z,51.60
2023-03-24T09:15:36.930Z,51.32
2023-03-24T09:18:04.132Z,50.62
2023-03-24T09:20:31.437Z,49.53
2023-03-24T09:22:58.740Z,50.76
2023-03-24T09:25:25.690Z,50.90
2023-03-24T09:27:53.911Z,51.02
2023-03-24T09:30:21.354Z,52.07
2023-03-24T09:32:48.691Z,48.59
2023-03-24T09:35:16.020Z,47.89
2023-03-24T09:37:44.584Z,48.67
2023-03-24T09:40:30.618Z,49.88
2023-03-24T09:43:05.813Z,46.83
2023-03-24T09:45:50.476Z,45.67
2023-03-24T09:48:39.761Z,46.11
2023-03-24T09:51:15.618Z,45.49
2023-03-24T09:54:28.996Z,43.40
2023-03-24T09:56:57.604Z,44.76
2023-03-24T09:59:54.271Z,43.36
2023-03-24T10:02:25.242Z,42.75
2023-03-24T10:04:53.354Z,45.24
2023-03-24T10:07:34.457Z,41.55
2023-03-24T10:10:04.650Z,41.10
2023-03-24T10:12:43.834Z,39.40
2023-03-24T10:15:37.121Z,39.10
2023-03-24T10:18:34.568Z,39.83
2023-03-24T10:21:15.178Z,39.83
2023-03-24T10:23:59.119Z,38.17
2023-03-24T10:26:29.064Z,40.00
2023-03-24T10:29:28.065Z,39.50
2023-03-24T10:32:04.079Z,38.45
2023-03-24T10:34:34.464Z,39.22
2023-03-24T10:37:04.584Z,36.93
2023-03-24T10:39:44.123Z,36.58
2023-03-24T10:42:27.028Z,36.45
2023-03-24T10:44:54.357Z,35.87
2023-03-24T10:47:33.068Z,37.37
2023-03-24T10:50:14.766Z,36.42
2023-03-24T10:52:50.785Z,37.44
2023-03-24T10:55:21.417Z,35.54
2023-03-24T10:57:51.526Z,34.68
2023-03-24T11:00:26.753Z,35.56
2023-03-24T11:03:09.037Z,36.31
2023-03-24T11:05:38.963Z,37.02
2023-03-24T11:08:18.395Z,36.76
2023-03-24T11:10:45.271Z,35.07
2023-03-24T11:13:26.806Z,35.92
2023-03-24T11:16:15.654Z,35.95
2023-03-24T11:18:58.619Z,35.32
2023-03-24T11:21:28.339Z,33.79
2023-03-24T11:24:02.802Z,33.44
2023-03-24T11:26:38.608Z,33.96
2023-03-24T11:29:17.633Z,34.47
2023-03-24T11:32:05.719Z,33.90
2023-03-24T11:34:39.076Z,33.99
2023-03-24T11:37:23.604Z,34.12
2023-03-24T11:40:13.599Z,32.82
2023-03-24T11:42:58.889Z,32.40
2023-03-24T11:45:34.946Z,33.10
2023-03-24T11:48:05.261Z,32.59
2023-03-24T11:50:40.073Z,32.37
2023-03-24T11:53:12.223Z,32.27
2023-03-24T11:55:51.350Z,33.86
2023-03-24T11:58:26.776Z,33.79
2023-03-24T12:01:21.662Z,33.26
2023-03-24T12:04:06.797Z,31.63
2023-03-24T12:07:29.560Z,30.94
2023-03-24T12:10:17.789Z,30.04
2023-03-24T12:13:07.066Z,28.59
2023-03-24T12:15:57.338Z,28.31
2023-03-24T12:18:49.383Z,29.14
2023-03-24T12:21:43.682Z,29.86
2023-03-24T12:24:22.997Z,28.34
2023-03-24T12:26:55.188Z,28.65
2023-03-24T12:30:00.157Z,28.52
2023-03-24T12:32:37.846Z,29.93
2023-03-24T12:35:28.845Z,29.29
2023-03-24T12:38:21.305Z,28.51
2023-03-24T12:41:17.590Z,28.26
2023-03-24T12:43:50.258Z,28.86
2023-03-24T12:46:46.676Z,27.41
2023-03-24T12:49:32.650Z,27.74
2023-03-24T12:52:37.414Z,28.06
2023-03-24T12:55:08.377Z,27.50
2023-03-24T12:57:48.590Z,27.50
2023-03-24T13:00:36.582Z,26.59
2023-03-24T13:03:31.798Z,26.30
2023-03-24T13:06:16.886Z,26.57
2023-03-24T13:08:49.784Z,26.33
2023-03-24T13:11:32.272Z,25.78
2023-03-24T13:14:03.973Z,26.06
2023-03-24T13:16:36.334Z,26.35
2023-03-24T13:19:03.991Z,25.88
2023-03-24T13:21:35.250Z,27.29
2023-03-24T13:24:14.489Z,27.10
2023-03-24T13:29:49.472Z,24.43
2023-03-24T13:32:24.099Z,25.54
2023-03-24T13:35:18.270Z,25.78
2023-03-24T13:37:58.042Z,25.34
2023-03-24T13:40:28.885Z,26.00
2023-03-24T13:42:59.879Z,25.47
2023-03-24T13:45:39.507Z,26.14
2023-03-24T13:48:07.128Z,24.78
2023-03-24T13:50:41.701Z,23.94
2023-03-24T13:53:18.208Z,23.08
2023-03-24T13:55:52.660Z,23.59
2023-03-24T13:58:28.766Z,23.26
2023-03-24T14:01:09.267Z,24.17
2023-03-24T14:03:43.385Z,24.00
2023-03-24T14:06:48.041Z,24.76
2023-03-24T14:09:34.519Z,24.97
2023-03-24T14:12:08.415Z,25.47
2023-03-24T14:14:57.185Z,25.53
2023-03-24T14:17:30.356Z,26.03
2023-03-24T14:20:09.224Z,25.93
2023-03-24T14:22:41.547Z,26.13
2023-03-24T14:25:23.676Z,26.46
2023-03-24T14:28:08.255Z,26.41
2023-03-24T14:30:44.686Z,26.38
2023-03-24T14:33:25.670Z,26.52
2023-03-24T14:36:02.246Z,26.14
2023-03-24T14:38:29.170Z,26.86
2023-03-24T14:41:06.284Z,26.60
2023-03-24T14:43:41.834Z,26.96
2023-03-24T14:46:21.416Z,27.42
2023-03-24T14:49:23.585Z,27.40
2023-03-24T14:52:16.562Z,26.65
2023-03-24T14:55:01.221Z,26.54
2023-03-24T14:57:41.553Z,27.29
2023-03-24T15:00:42.252Z,28.54
2023-03-24T15:03:11.557Z,31.21
2023-03-24T15:05:38.986Z,31.16
2023-03-24T15:08:06.266Z,31.88
2023-03-24T15:11:07.781Z,32.53
2023-03-24T15:13:34.678Z,32.27
2023-03-24T15:16:27.778Z,32.70
2023-03-24T15:19:01.937Z,32.86
2023-03-24T15:21:37.436Z,33.41
2023-03-24T15:24:29.543Z,33.07
2023-03-24T15:27:20.849Z,33.90
2023-03-24T15:29:57.911Z,34.40
2023-03-24T15:32:28.078Z,35.04
2023-03-24T15:34:58.986Z,35.23
2023-03-24T15:37:40.604Z,34.84
2023-03-24T15:40:30.604Z,35.01
2023-03-24T15:43:17.450Z,34.71
2023-03-24T15:45:51.068Z,34.40
2023-03-24T15:48:51.555Z,34.71
2023-03-24T15:51:18.727Z,35.00
2023-03-24T15:54:04.879Z,34.93
2023-03-24T15:56:32.348Z,35.15
2023-03-24T15:59:16.100Z,35.35
2023-03-24T16:01:45.134Z,35.52
2023-03-24T16:04:15.948Z,35.63
2023-03-24T16:06:49.495Z,35.69
2023-03-24T16:09:27.954Z,36.22
2023-03-24T16:11:55.313Z,36.19
2023-03-24T16:14:27.436Z,36.36
2023-03-24T16:17:00.177Z,36.00
2023-03-24T16:19:28.044Z,36.61
2023-03-24T16:21:55.390Z,36.92
2023-03-24T16:24:23.788Z,37.29
2023-03-24T16:26:50.820Z,37.24
2023-03-24T16:29:22.709Z,37.37
2023-03-24T16:32:01.289Z,37.67
2023-03-24T16:34:28.483Z,37.74
2023-03-24T16:36:56.705Z,37.54
2023-03-24T16:39:29.632Z,37.96
2023-03-24T16:41:56.802Z,38.18
2023-03-24T16:44:24.512Z,38.44
2023-03-24T16:46:58.781Z,38.80
2023-03-24T17:09:08.676Z,41.26
2023-03-24T17:11:48.117Z,41.34
2023-03-24T17:15:06.643Z,41.56
2023-03-24T17:18:27.600Z,41.80
2023-03-24T17:21:10.526Z,41.76
2023-03-24T17:23:37.505Z,41.90
2023-03-24T17:26:05.326Z,42.52
2023-03-24T17:28:32.423Z,42.53
2023-03-24T17:30:59.465Z,42.56
2023-03-24T17:33:26.434Z,43.04
2023-03-24T17:35:54.710Z,43.20
2023-03-24T17:38:21.572Z,43.83
2023-03-24T17:40:48.760Z,44.07
2023-03-24T17:43:15.998Z,44.42
2023-03-24T17:45:42.868Z,44.36
2023-03-24T17:48:10.026Z,45.46
2023-03-24T17:50:37.125Z,45.19
2023-03-24T17:53:04.028Z,44.45
2023-03-24T17:55:31.142Z,44.99
2023-03-24T17:57:58.459Z,45.49
2023-03-24T18:00:25.410Z,45.25
2023-03-24T18:02:52.893Z,44.96
2023-03-24T18:05:20.313Z,45.67
2023-03-24T18:07:47.443Z,45.63
2023-03-24T18:10:17.494Z,46.68
2023-03-24T18:12:44.558Z,47.47
2023-03-24T18:15:12.392Z,46.65
2023-03-24T18:17:39.622Z,46.82
2023-03-24T18:20:28.103Z,46.93
2023-03-24T18:22:55.218Z,47.23
2023-03-24T18:25:22.297Z,47.17
2023-03-24T18:27:49.838Z,48.01
2023-03-24T18:30:25.185Z,46.88
2023-03-24T18:32:52.144Z,47.30
2023-03-24T18:35:24.713Z,47.44
2023-03-24T18:37:52.025Z,48.84
2023-03-24T18:40:19.018Z,48.11
2023-03-24T18:59:01.250Z,49.30
2023-03-24T19:01:33.406Z,49.94
2023-03-24T19:04:00.377Z,49.63
2023-03-24T19:06:31.474Z,49.04
2023-03-24T19:08:59.694Z,49.13
2023-03-24T19:11:26.842Z,49.32
2023-03-24T19:13:56.821Z,49.46
2023-03-24T19:16:27.723Z,49.02
2023-03-24T19:18:58.129Z,49.51
2023-03-24T19:21:25.717Z,49.20
2023-03-24T19:23:59.892Z,50.32
2023-03-24T19:26:26.694Z,49.84
2023-03-24T19:28:53.775Z,49.82
2023-03-24T19:31:21.296Z,50.47
2023-03-24T19:33:52.586Z,50.48
2023-03-24T19:36:20.105Z,51.11
2023-03-24T19:38:47.124Z,50.11
2023-03-24T19:41:15.288Z,50.63
2023-03-24T19:43:42.538Z,50.51
2023-03-24T19:46:12.349Z,50.75
2023-03-24T19:48:39.277Z,51.07
2023-03-24T19:51:06.403Z,51.41
2023-03-24T19:53:33.869Z,51.23
2023-03-24T19:56:08.591Z,51.25
2023-03-24T19:58:36.182Z,50.48
2023-03-24T20:01:03.255Z,51.31
2023-03-24T20:03:30.297Z,50.42
2023-03-24T20:06:03.398Z,50.65
2023-03-24T20:08:33.217Z,50.97
2023-03-24T20:11:34.728Z,51.08
2023-03-24T20:14:20.056Z,50.37
2023-03-24T20:19:41.819Z,51.20
2023-03-24T20:22:08.738Z,51.96
2023-03-24T20:24:38.652Z,52.47
2023-03-24T20:27:06.928Z,53.04
2023-03-24T20:29:34.091Z,54.80
2023-03-24T20:32:00.906Z,54.64
2023-03-24T20:34:28.282Z,55.75
2023-03-24T20:36:55.202Z,54.62
2023-03-24T20:39:22.808Z,55.58
2023-03-24T20:41:50.145Z,55.74
2023-03-24T20:57:47.997Z,55.19
2023-03-24T21:00:18.268Z,55.84
2023-03-24T21:02:48.299Z,55.66
2023-03-24T21:05:40.909Z,55.72
2023-03-24T21:08:45.298Z,55.11
2023-03-24T21:11:39.900Z,55.39
2023-03-24T21:14:13.292Z,55.97
2023-03-24T21:23:12.112Z,54.37
2023-03-24T21:26:09.928Z,55.42
2023-03-24T22:13:19.464Z,57.19
2023-03-24T22:15:55.376Z,57.25
2023-03-24T22:21:21.193Z,56.45
2023-03-24T22:23:50.744Z,55.63
2023-03-24T22:26:20.966Z,55.53
2023-03-24T22:28:51.693Z,56.19
2023-03-24T22:31:20.497Z,55.61
2023-03-24T22:34:10.973Z,55.85
2023-03-24T22:36:39.260Z,55.28
2023-03-24T22:53:12.344Z,57.82
2023-03-24T22:55:42.275Z,58.47
2023-03-24T22:58:41.722Z,58.79
2023-03-24T23:01:15.708Z,58.44
2023-03-24T23:04:43.508Z,59.17
2023-03-24T23:07:10.805Z,60.38
2023-03-24T23:19:14.295Z,59.39
2023-03-24T23:21:49.103Z,60.03
2023-03-24T23:24:16.666Z,60.28
2023-03-24T23:27:07.434Z,61.44
2023-03-24T23:29:34.599Z,62.58
2023-03-24T23:33:06.530Z,62.00
2023-03-24T23:35:54.777Z,62.68
2023-03-24T23:38:34.449Z,62.03
2023-03-24T23:41:08.558Z,62.15
2023-03-24T23:43:40.321Z,61.58
2023-03-24T23:46:13.755Z,61.33
2023-03-24T23:48:44.148Z,61.23
2023-03-24T23:51:12.704Z,61.15
2023-03-24T23:53:45.312Z,63.06
2023-03-24T23:56:14.609Z,64.17
2023-03-24T23:58:42.933Z,64.50
